createdAt,value
2017-09-24T00:00:55.222Z,99.99
2017-09-24T00:01:55.199Z,99.99
2017-09-24T00:02:54.880Z,99.99
2017-09-24T00:03:55.174Z,99.99
2017-09-24T00:04:55.158Z,99.99
2017-09-24T00:05:55.151Z,99.99
2017-09-24T00:06:55.100Z,99.99
2017-09-24T00:07:54.778Z,99.99
2017-09-24T00:08:55.082Z,99.99
2017-09-24T00:09:55.060Z,99.99
2017-09-24T00:10:55.042Z,99.99
2017-09-24T00:11:55.030Z,99.99
2017-09-24T00:12:54.999Z,99.99
2017-09-24T00:13:54.982Z,99.99
2017-09-24T00:14:54.645Z,99.99
2017-09-24T00:15:54.631Z,99.99
2017-09-24T00:16:54.918Z,99.99
2017-09-24T00:17:54.906Z,99.99
2017-09-24T00:18:54.888Z,99.99
2017-09-24T00:19:54.559Z,99.99
2017-09-24T00:20:54.537Z,99.99
2017-09-24T00:21:54.523Z,99.99
2017-09-24T00:22:54.505Z,99.99
2017-09-24T00:23:54.849Z,99.99
2017-09-24T00:24:54.777Z,99.99
2017-09-24T00:25:54.768Z,99.99
2017-09-24T00:26:54.749Z,99.99
2017-09-24T00:27:54.723Z,99.99
2017-09-24T00:28:54.698Z,99.99
2017-09-24T00:29:54.714Z,99.99
2017-09-24T00:30:54.678Z,99.99
2017-09-24T00:31:54.651Z,99.99
2017-09-24T00:32:54.635Z,99.99
2017-09-24T00:33:54.623Z,99.99
2017-09-24T00:34:54.603Z,99.99
2017-09-24T00:35:54.578Z,99.99
2017-09-24T00:36:54.549Z,99.99
2017-09-24T00:37:54.533Z,99.99
2017-09-24T00:38:54.529Z,99.99
2017-09-24T00:39:54.188Z,99.99
2017-09-24T00:40:54.179Z,99.99
2017-09-24T00:41:54.148Z,99.99
2017-09-24T00:42:54.458Z,99.99
2017-09-24T00:43:54.120Z,99.99
2017-09-24T00:44:54.420Z,99.99
2017-09-24T00:45:54.418Z,99.99
2017-09-24T00:46:54.065Z,99.99
2017-09-24T00:47:54.071Z,99.99
2017-09-24T00:48:54.335Z,99.99
2017-09-24T00:49:54.377Z,99.99
2017-09-24T00:50:54.297Z,99.99
2017-09-24T00:51:54.288Z,99.99
2017-09-24T00:52:54.273Z,99.99
2017-09-24T00:53:54.373Z,99.99
2017-09-24T00:54:54.227Z,99.99
2017-09-24T00:55:53.913Z,99.99
2017-09-24T00:56:54.189Z,99.99
2017-09-24T00:57:54.187Z,99.99
2017-09-24T00:58:54.157Z,99.99
2017-09-24T00:59:53.838Z,99.99
2017-09-24T01:00:54.121Z,99.99
2017-09-24T01:01:54.209Z,99.99
2017-09-24T01:02:53.778Z,99.99
2017-09-24T01:03:54.198Z,99.99
2017-09-24T01:04:54.052Z,99.99
2017-09-24T01:05:54.040Z,99.99
2017-09-24T01:06:53.698Z,99.99
2017-09-24T01:07:53.827Z,99.99
2017-09-24T01:08:53.967Z,99.99
2017-09-24T01:09:53.967Z,99.99
2017-09-24T01:10:53.939Z,99.99
2017-09-24T01:11:53.921Z,99.99
2017-09-24T01:12:53.898Z,99.99
2017-09-24T01:13:53.881Z,99.99
2017-09-24T01:14:53.874Z,99.99
2017-09-24T01:15:53.837Z,99.99
2017-09-24T01:16:53.520Z,99.99
2017-09-24T01:17:53.806Z,99.99
2017-09-24T01:18:53.481Z,99.99
2017-09-24T01:19:53.797Z,99.99
2017-09-24T01:20:53.745Z,99.99
2017-09-24T01:21:53.732Z,99.99
2017-09-24T01:22:53.835Z,99.99
2017-09-24T01:23:53.698Z,99.99
2017-09-24T01:24:53.690Z,99.99
2017-09-24T01:25:53.696Z,99.99
2017-09-24T01:26:53.340Z,99.99
2017-09-24T01:27:53.316Z,99.99
2017-09-24T01:28:53.623Z,99.99
2017-09-24T01:29:53.280Z,99.99
2017-09-24T01:30:53.268Z,99.99
2017-09-24T01:31:53.549Z,99.99
2017-09-24T01:32:53.562Z,99.99
2017-09-24T01:33:53.516Z,99.99
2017-09-24T01:34:53.188Z,99.99
2017-09-24T01:35:53.167Z,99.99
2017-09-24T01:36:53.147Z,99.99
2017-09-24T01:37:53.459Z,99.99
2017-09-24T01:38:53.418Z,99.99
2017-09-24T01:39:53.096Z,99.99
2017-09-24T01:40:53.387Z,99.99
2017-09-24T01:41:53.060Z,99.99
2017-09-24T01:42:53.350Z,99.99
2017-09-24T01:43:53.341Z,99.99
2017-09-24T01:44:53.306Z,99.99
2017-09-24T01:45:53.287Z,99.99
2017-09-24T01:46:53.286Z,99.99
2017-09-24T01:47:53.257Z,99.99
2017-09-24T01:48:52.924Z,99.99
2017-09-24T01:49:53.218Z,99.99
2017-09-24T01:50:53.205Z,99.99
2017-09-24T01:51:53.188Z,99.99
2017-09-24T01:52:52.858Z,99.99
2017-09-24T01:53:52.844Z,99.99
2017-09-24T01:54:53.151Z,99.99
2017-09-24T01:55:53.118Z,99.99
2017-09-24T01:56:53.090Z,99.99
2017-09-24T01:57:53.087Z,99.99
2017-09-24T01:58:52.750Z,99.99
2017-09-24T01:59:53.046Z,99.99
2017-09-24T02:00:53.017Z,99.99
2017-09-24T02:01:53.008Z,99.99
2017-09-24T02:02:52.977Z,99.99
2017-09-24T02:03:52.966Z,99.99
2017-09-24T02:04:52.958Z,99.99
2017-09-24T02:05:52.938Z,99.99
2017-09-24T02:06:52.918Z,99.99
2017-09-24T02:07:52.890Z,99.99
2017-09-24T02:08:52.563Z,99.99
2017-09-24T02:09:52.871Z,99.99
2017-09-24T02:10:52.849Z,99.99
2017-09-24T02:11:52.829Z,99.99
2017-09-24T02:12:52.809Z,99.99
2017-09-24T02:13:52.941Z,99.99
2017-09-24T02:14:52.760Z,99.99
2017-09-24T02:15:52.750Z,99.99
2017-09-24T02:16:52.732Z,99.99
2017-09-24T02:17:52.717Z,99.99
2017-09-24T02:18:52.700Z,99.99
2017-09-24T02:19:52.679Z,99.99
2017-09-24T02:20:52.668Z,99.99
2017-09-24T02:21:52.329Z,99.99
2017-09-24T02:22:52.629Z,99.99
2017-09-24T02:23:52.605Z,99.99
2017-09-24T02:24:52.278Z,99.99
2017-09-24T02:25:52.581Z,99.99
2017-09-24T02:26:52.234Z,99.99
2017-09-24T02:27:52.630Z,99.99
2017-09-24T02:28:52.201Z,99.99
2017-09-24T02:29:52.266Z,99.99
2017-09-24T02:30:52.168Z,99.99
2017-09-24T02:31:52.191Z,99.99
2017-09-24T02:32:52.126Z,99.99
2017-09-24T02:33:52.430Z,99.99
2017-09-24T02:34:52.090Z,99.99
2017-09-24T02:35:52.107Z,99.99
2017-09-24T02:36:52.051Z,99.99
2017-09-24T02:37:52.384Z,99.99
2017-09-24T02:38:52.468Z,99.99
2017-09-24T02:39:52.308Z,99.99
2017-09-24T02:40:52.298Z,99.99
2017-09-24T02:41:51.963Z,99.99
2017-09-24T02:42:51.938Z,99.99
2017-09-24T02:43:52.238Z,99.99
2017-09-24T02:44:52.289Z,99.99
2017-09-24T02:45:51.889Z,99.99
2017-09-24T02:46:52.185Z,99.99
2017-09-24T02:47:52.162Z,99.99
2017-09-24T02:48:52.288Z,99.99
2017-09-24T02:49:52.198Z,99.99
2017-09-24T02:50:52.159Z,99.99
2017-09-24T02:51:51.774Z,99.99
2017-09-24T02:52:52.121Z,99.99
2017-09-24T02:53:51.738Z,99.99
2017-09-24T02:54:51.718Z,99.99
2017-09-24T02:55:52.006Z,99.99
2017-09-24T02:56:51.988Z,99.99
2017-09-24T02:57:51.668Z,99.99
2017-09-24T02:58:51.951Z,99.99
2017-09-24T02:59:51.933Z,99.99
2017-09-24T03:00:51.922Z,99.99
2017-09-24T03:01:51.895Z,99.99
2017-09-24T03:02:51.881Z,99.99
2017-09-24T03:03:51.869Z,99.99
2017-09-24T03:04:51.539Z,99.99
2017-09-24T03:05:51.820Z,99.99
2017-09-24T03:06:51.509Z,99.99
2017-09-24T03:07:51.479Z,99.99
2017-09-24T03:08:51.810Z,99.99
2017-09-24T03:09:51.448Z,99.99
2017-09-24T03:10:51.728Z,99.99
2017-09-24T03:11:51.718Z,99.99
2017-09-24T03:12:51.690Z,99.99
2017-09-24T03:13:51.674Z,99.99
2017-09-24T03:14:51.351Z,99.99
2017-09-24T03:15:51.331Z,99.99
2017-09-24T03:16:51.640Z,99.99
2017-09-24T03:17:51.599Z,99.99
2017-09-24T03:18:51.587Z,99.99
2017-09-24T03:19:51.260Z,99.99
2017-09-24T03:20:51.238Z,99.99
2017-09-24T03:21:51.519Z,99.99
2017-09-24T03:22:51.513Z,99.99
2017-09-24T03:23:51.492Z,99.99
2017-09-24T03:24:51.477Z,99.99
2017-09-24T03:25:51.451Z,99.99
2017-09-24T03:26:51.461Z,99.99
2017-09-24T03:27:51.415Z,99.99
2017-09-24T03:28:51.398Z,99.99
2017-09-24T03:29:51.081Z,99.99
2017-09-24T03:30:51.372Z,99.99
2017-09-24T03:31:51.352Z,99.99
2017-09-24T03:32:51.340Z,99.99
2017-09-24T03:33:51.298Z,99.99
2017-09-24T03:34:51.297Z,99.99
2017-09-24T03:35:50.954Z,99.99
2017-09-24T03:36:51.261Z,99.99
2017-09-24T03:37:50.926Z,99.99
2017-09-24T03:38:51.209Z,99.99
2017-09-24T03:39:50.888Z,99.99
2017-09-24T03:40:50.868Z,99.99
2017-09-24T03:41:51.163Z,99.99
2017-09-24T03:42:51.139Z,99.99
2017-09-24T03:43:51.131Z,99.99
2017-09-24T03:44:51.117Z,99.99
2017-09-24T03:45:50.829Z,99.99
2017-09-24T03:46:50.755Z,99.99
2017-09-24T03:47:50.788Z,99.99
2017-09-24T03:48:51.048Z,99.99
2017-09-24T03:49:50.844Z,99.99
2017-09-24T03:50:50.681Z,99.99
2017-09-24T03:51:50.674Z,99.99
2017-09-24T03:52:50.970Z,99.99
2017-09-24T03:53:50.941Z,99.99
2017-09-24T03:54:50.918Z,99.99
2017-09-24T03:55:50.909Z,99.99
2017-09-24T03:56:50.584Z,99.99
2017-09-24T03:57:50.861Z,99.99
2017-09-24T03:58:50.838Z,99.99
2017-09-24T03:59:50.838Z,99.99
2017-09-24T04:00:50.499Z,99.99
2017-09-24T04:01:50.490Z,99.99
2017-09-24T04:02:50.781Z,99.99
2017-09-24T04:03:50.459Z,99.99
2017-09-24T04:04:50.738Z,99.99
2017-09-24T04:05:50.738Z,99.99
2017-09-24T04:06:50.700Z,99.99
2017-09-24T04:07:50.676Z,99.99
2017-09-24T04:08:50.660Z,99.99
2017-09-24T04:09:50.693Z,99.99
2017-09-24T04:10:50.321Z,99.99
2017-09-24T04:11:50.299Z,99.99
2017-09-24T04:12:50.611Z,99.99
2017-09-24T04:13:50.628Z,99.99
2017-09-24T04:14:50.243Z,99.99
2017-09-24T04:15:50.585Z,99.99
2017-09-24T04:16:50.571Z,99.99
2017-09-24T04:17:50.540Z,99.99
2017-09-24T04:18:50.530Z,99.99
2017-09-24T04:19:50.515Z,99.99
2017-09-24T04:20:50.480Z,99.99
2017-09-24T04:21:50.431Z,99.99
2017-09-24T04:22:50.410Z,99.99
2017-09-24T04:23:50.449Z,99.99
2017-09-24T04:24:50.361Z,99.99
2017-09-24T04:25:50.341Z,99.99
2017-09-24T04:26:50.330Z,99.99
2017-09-24T04:27:49.997Z,99.99
2017-09-24T04:28:50.297Z,99.99
2017-09-24T04:29:50.289Z,99.99
2017-09-24T04:30:50.261Z,99.99
2017-09-24T04:31:50.240Z,99.99
2017-09-24T04:32:50.224Z,99.99
2017-09-24T04:33:49.890Z,99.99
2017-09-24T04:34:50.186Z,99.99
2017-09-24T04:35:50.169Z,99.99
2017-09-24T04:36:50.149Z,99.99
2017-09-24T04:37:50.131Z,99.99
2017-09-24T04:38:50.160Z,99.99
2017-09-24T04:39:49.790Z,99.99
2017-09-24T04:40:49.760Z,99.99
2017-09-24T04:41:49.740Z,99.99
2017-09-24T04:42:50.122Z,99.99
2017-09-24T04:43:49.703Z,99.99
2017-09-24T04:44:50.099Z,99.99
2017-09-24T04:45:49.979Z,99.99
2017-09-24T04:46:49.971Z,99.99
2017-09-24T04:47:49.930Z,99.99
2017-09-24T04:48:49.928Z,99.99
2017-09-24T04:49:49.599Z,99.99
2017-09-24T04:50:49.879Z,99.99
2017-09-24T04:51:49.869Z,99.99
2017-09-24T04:52:49.852Z,99.99
2017-09-24T04:53:49.840Z,99.99
2017-09-24T04:54:49.826Z,99.99
2017-09-24T04:55:49.800Z,99.99
2017-09-24T04:56:49.779Z,99.99
2017-09-24T04:57:49.750Z,99.99
2017-09-24T04:58:49.729Z,99.99
2017-09-24T04:59:49.728Z,99.99
2017-09-24T05:00:49.388Z,99.99
2017-09-24T05:01:49.368Z,99.99
2017-09-24T05:02:49.669Z,99.99
2017-09-24T05:03:49.649Z,99.99
2017-09-24T05:04:49.628Z,99.99
2017-09-24T05:05:49.606Z,99.99
2017-09-24T05:06:49.591Z,99.99
2017-09-24T05:07:49.262Z,99.99
2017-09-24T05:08:49.548Z,99.99
2017-09-24T05:09:49.532Z,99.99
2017-09-24T05:10:49.530Z,99.99
2017-09-24T05:11:49.502Z,99.99
2017-09-24T05:12:49.171Z,99.99
2017-09-24T05:13:49.462Z,99.99
2017-09-24T05:14:49.129Z,99.99
2017-09-24T05:15:49.430Z,99.99
2017-09-24T05:16:49.097Z,99.99
2017-09-24T05:17:49.071Z,99.99
2017-09-24T05:18:49.058Z,99.99
2017-09-24T05:19:49.357Z,99.99
2017-09-24T05:20:49.325Z,99.99
2017-09-24T05:21:49.314Z,99.99
2017-09-24T05:22:49.292Z,99.99
2017-09-24T05:23:49.269Z,99.99
2017-09-24T05:24:49.260Z,99.99
2017-09-24T05:25:49.238Z,99.99
2017-09-24T05:26:49.212Z,99.99
2017-09-24T05:27:49.199Z,99.99
2017-09-24T05:28:48.878Z,99.99
2017-09-24T05:29:49.172Z,99.99
2017-09-24T05:30:49.311Z,99.99
2017-09-24T05:31:48.818Z,99.99
2017-09-24T05:32:48.804Z,99.99
2017-09-24T05:33:49.112Z,99.99
2017-09-24T05:34:49.069Z,99.99
2017-09-24T05:35:48.742Z,99.99
2017-09-24T05:36:49.046Z,99.99
2017-09-24T05:37:49.018Z,99.99
2017-09-24T05:38:48.997Z,99.99
2017-09-24T05:39:48.977Z,99.99
2017-09-24T05:40:48.655Z,99.99
2017-09-24T05:41:48.937Z,99.99
2017-09-24T05:42:48.919Z,99.99
2017-09-24T05:43:48.609Z,99.99
2017-09-24T05:44:48.906Z,99.99
2017-09-24T05:45:48.875Z,99.99
2017-09-24T05:46:48.862Z,99.99
2017-09-24T05:47:48.829Z,99.99
2017-09-24T05:48:48.879Z,99.99
2017-09-24T05:49:48.474Z,99.99
2017-09-24T05:50:48.470Z,99.99
2017-09-24T05:51:48.760Z,99.99
2017-09-24T05:52:48.426Z,99.99
2017-09-24T05:53:48.719Z,99.99
2017-09-24T05:54:48.704Z,99.99
2017-09-24T05:55:48.690Z,99.99
2017-09-24T05:56:48.715Z,99.99
2017-09-24T05:57:48.652Z,99.99
2017-09-24T05:58:48.319Z,99.99
2017-09-24T05:59:48.300Z,99.99
2017-09-24T06:00:48.586Z,99.99
2017-09-24T06:01:48.257Z,99.99
2017-09-24T06:02:48.551Z,99.99
2017-09-24T06:03:48.528Z,99.99
2017-09-24T06:04:48.571Z,99.99
2017-09-24T06:05:48.189Z,99.99
2017-09-24T06:06:48.484Z,99.99
2017-09-24T06:07:48.150Z,99.99
2017-09-24T06:08:48.481Z,99.99
2017-09-24T06:09:48.430Z,99.99
2017-09-24T06:10:48.092Z,99.99
2017-09-24T06:11:48.081Z,99.99
2017-09-24T06:12:48.372Z,99.99
2017-09-24T06:13:48.041Z,99.99
2017-09-24T06:14:48.360Z,99.99
2017-09-24T06:15:48.012Z,99.99
2017-09-24T06:16:48.322Z,99.99
2017-09-24T06:17:47.970Z,99.99
2017-09-24T06:18:47.952Z,99.99
2017-09-24T06:19:48.232Z,99.99
2017-09-24T06:20:47.911Z,99.99
2017-09-24T06:21:47.894Z,99.99
2017-09-24T06:22:48.179Z,99.99
2017-09-24T06:23:48.170Z,99.99
2017-09-24T06:24:47.917Z,99.99
2017-09-24T06:25:48.132Z,99.99
2017-09-24T06:26:48.118Z,99.99
2017-09-24T06:27:47.779Z,99.99
2017-09-24T06:28:48.070Z,99.99
2017-09-24T06:29:48.057Z,99.99
2017-09-24T06:30:48.041Z,99.99
2017-09-24T06:31:48.030Z,99.99
2017-09-24T06:32:47.999Z,99.99
2017-09-24T06:33:47.980Z,99.99
2017-09-24T06:34:47.961Z,99.99
2017-09-24T06:35:47.989Z,99.99
2017-09-24T06:36:47.922Z,99.99
2017-09-24T06:37:47.921Z,99.99
2017-09-24T06:38:47.900Z,99.99
2017-09-24T06:39:47.884Z,99.99
2017-09-24T06:40:47.867Z,99.99
2017-09-24T06:41:47.830Z,99.99
2017-09-24T06:42:47.813Z,99.99
2017-09-24T06:43:47.802Z,99.99
2017-09-24T06:44:47.470Z,99.99
2017-09-24T06:45:47.760Z,99.99
2017-09-24T06:46:47.738Z,99.99
2017-09-24T06:47:47.418Z,99.99
2017-09-24T06:48:47.699Z,99.99
2017-09-24T06:49:47.689Z,99.99
2017-09-24T06:50:47.659Z,99.99
2017-09-24T06:51:47.650Z,99.99
2017-09-24T06:52:47.641Z,99.99
2017-09-24T06:53:47.299Z,99.99
2017-09-24T06:54:47.602Z,99.99
2017-09-24T06:55:47.569Z,99.99
2017-09-24T06:56:47.561Z,99.99
2017-09-24T06:57:47.538Z,99.99
2017-09-24T06:58:47.531Z,99.99
2017-09-24T06:59:47.506Z,99.99
2017-09-24T07:00:47.491Z,99.99
2017-09-24T07:01:47.146Z,99.99
2017-09-24T07:02:47.455Z,99.99
2017-09-24T07:03:47.435Z,99.99
2017-09-24T07:04:47.101Z,99.99
2017-09-24T07:05:47.390Z,99.99
2017-09-24T07:06:47.380Z,99.99
2017-09-24T07:07:47.040Z,99.99
2017-09-24T07:08:47.032Z,99.99
2017-09-24T07:09:47.000Z,99.99
2017-09-24T07:10:47.310Z,99.99
2017-09-24T07:11:47.299Z,99.99
2017-09-24T07:12:47.260Z,99.99
2017-09-24T07:13:47.240Z,99.99
2017-09-24T07:14:47.231Z,99.99
2017-09-24T07:15:47.208Z,99.99
2017-09-24T07:16:47.199Z,99.99
2017-09-24T07:17:47.170Z,99.99
2017-09-24T07:18:46.836Z,99.99
2017-09-24T07:19:47.129Z,99.99
2017-09-24T07:20:46.810Z,99.99
2017-09-24T07:21:47.102Z,99.99
2017-09-24T07:22:47.080Z,99.99
2017-09-24T07:23:46.762Z,99.99
2017-09-24T07:24:47.049Z,99.99
2017-09-24T07:25:46.709Z,99.99
2017-09-24T07:26:46.750Z,99.99
2017-09-24T07:27:47.000Z,99.99
2017-09-24T07:28:46.969Z,99.99
2017-09-24T07:29:46.988Z,99.99
2017-09-24T07:30:46.943Z,99.99
2017-09-24T07:31:46.927Z,99.99
2017-09-24T07:32:46.904Z,99.99
2017-09-24T07:33:46.878Z,99.99
2017-09-24T07:34:46.861Z,99.99
2017-09-24T07:35:46.891Z,99.99
2017-09-24T07:36:46.842Z,99.99
2017-09-24T07:37:46.504Z,99.99
2017-09-24T07:38:46.797Z,99.99
2017-09-24T07:39:46.469Z,99.99
2017-09-24T07:40:46.760Z,99.99
2017-09-24T07:41:46.440Z,99.99
2017-09-24T07:42:46.722Z,99.99
2017-09-24T07:43:46.403Z,99.99
2017-09-24T07:44:46.689Z,99.99
2017-09-24T07:45:46.679Z,99.99
2017-09-24T07:46:46.660Z,99.99
2017-09-24T07:47:46.328Z,99.99
2017-09-24T07:48:46.397Z,99.99
2017-09-24T07:49:46.612Z,99.99
2017-09-24T07:50:46.279Z,99.99
2017-09-24T07:51:46.256Z,99.99
2017-09-24T07:52:46.571Z,99.99
2017-09-24T07:53:46.222Z,99.99
2017-09-24T07:54:46.520Z,99.99
2017-09-24T07:55:46.200Z,99.99
2017-09-24T07:56:46.506Z,99.99
2017-09-24T07:57:46.161Z,99.99
2017-09-24T07:58:46.450Z,99.99
2017-09-24T07:59:46.119Z,99.99
2017-09-24T08:00:46.410Z,99.99
2017-09-24T08:01:46.091Z,99.99
2017-09-24T08:02:46.068Z,99.99
2017-09-24T08:03:46.041Z,99.99
2017-09-24T08:04:46.337Z,99.99
2017-09-24T08:05:46.322Z,99.99
2017-09-24T08:06:46.338Z,99.99
2017-09-24T08:07:46.294Z,99.99
2017-09-24T08:08:45.959Z,99.99
2017-09-24T08:09:46.259Z,99.99
2017-09-24T08:10:46.238Z,99.99
2017-09-24T08:11:46.227Z,99.99
2017-09-24T08:12:46.201Z,99.99
2017-09-24T08:13:46.199Z,99.99
2017-09-24T08:14:46.188Z,99.99
2017-09-24T08:15:45.840Z,99.99
2017-09-24T08:16:46.141Z,99.99
2017-09-24T08:17:46.141Z,99.99
2017-09-24T08:18:46.099Z,99.99
2017-09-24T08:19:46.079Z,99.99
2017-09-24T08:20:46.078Z,99.99
2017-09-24T08:21:46.060Z,99.99
2017-09-24T08:22:46.039Z,99.99
2017-09-24T08:23:46.029Z,99.99
2017-09-24T08:24:45.995Z,99.99
2017-09-24T08:25:45.680Z,99.99
2017-09-24T08:26:45.970Z,99.99
2017-09-24T08:27:45.947Z,99.99
2017-09-24T08:28:45.938Z,99.99
2017-09-24T08:29:45.918Z,99.99
2017-09-24T08:30:45.613Z,99.99
2017-09-24T08:31:45.889Z,99.99
2017-09-24T08:32:45.551Z,99.99
2017-09-24T08:33:45.873Z,99.99
2017-09-24T08:34:45.840Z,99.99
2017-09-24T08:35:45.819Z,99.99
2017-09-24T08:36:45.798Z,99.99
2017-09-24T08:37:45.800Z,99.99
2017-09-24T08:38:45.762Z,99.99
2017-09-24T08:39:45.758Z,99.99
2017-09-24T08:40:45.721Z,99.99
2017-09-24T08:41:45.725Z,99.99
2017-09-24T08:42:45.692Z,99.99
2017-09-24T08:43:45.684Z,99.99
2017-09-24T08:44:45.666Z,99.99
2017-09-24T08:45:45.650Z,99.99
2017-09-24T08:46:45.642Z,99.99
2017-09-24T08:47:45.634Z,99.99
2017-09-24T08:48:45.610Z,99.99
2017-09-24T08:49:45.589Z,99.99
2017-09-24T08:50:45.583Z,99.99
2017-09-24T08:51:45.558Z,99.99
2017-09-24T08:52:45.532Z,99.99
2017-09-24T08:53:45.529Z,99.99
2017-09-24T08:54:45.510Z,99.99
2017-09-24T08:55:45.484Z,99.99
2017-09-24T08:56:45.484Z,99.99
2017-09-24T08:57:45.505Z,99.99
2017-09-24T08:58:45.462Z,99.99
2017-09-24T08:59:45.425Z,99.99
2017-09-24T09:00:45.421Z,99.99
2017-09-24T09:01:45.404Z,99.99
2017-09-24T09:02:45.113Z,99.99
2017-09-24T09:03:45.050Z,99.99
2017-09-24T09:04:45.382Z,99.99
2017-09-24T09:05:45.022Z,99.99
2017-09-24T09:06:45.010Z,99.99
2017-09-24T09:07:44.989Z,99.99
2017-09-24T09:08:44.988Z,99.99
2017-09-24T09:09:45.280Z,99.99
2017-09-24T09:10:45.302Z,99.99
2017-09-24T09:11:44.928Z,99.99
2017-09-24T09:12:45.279Z,99.99
2017-09-24T09:13:45.219Z,99.99
2017-09-24T09:14:45.197Z,99.99
2017-09-24T09:15:45.183Z,99.99
2017-09-24T09:16:45.191Z,99.99
2017-09-24T09:17:45.151Z,99.99
2017-09-24T09:18:45.190Z,99.99
2017-09-24T09:19:45.111Z,99.99
2017-09-24T09:20:44.900Z,99.99
2017-09-24T09:21:44.776Z,99.99
2017-09-24T09:22:45.091Z,99.99
2017-09-24T09:23:45.117Z,99.99
2017-09-24T09:24:45.060Z,99.99
2017-09-24T09:25:45.041Z,99.99
2017-09-24T09:26:44.707Z,99.99
2017-09-24T09:27:44.693Z,99.99
2017-09-24T09:28:44.996Z,99.99
2017-09-24T09:29:44.994Z,99.99
2017-09-24T09:30:45.009Z,99.99
2017-09-24T09:31:44.644Z,99.99
2017-09-24T09:32:44.629Z,99.99
2017-09-24T09:33:45.029Z,99.99
2017-09-24T09:34:44.925Z,99.99
2017-09-24T09:35:44.900Z,99.99
2017-09-24T09:36:44.885Z,99.99
2017-09-24T09:37:44.889Z,99.99
2017-09-24T09:38:44.860Z,99.99
2017-09-24T09:39:44.846Z,99.99
2017-09-24T09:40:44.819Z,99.99
2017-09-24T09:41:44.860Z,99.99
2017-09-24T09:42:44.818Z,99.99
2017-09-24T09:43:44.841Z,99.99
2017-09-24T09:44:44.771Z,99.99
2017-09-24T09:45:44.751Z,99.99
2017-09-24T09:46:44.752Z,99.99
2017-09-24T09:47:44.746Z,99.99
2017-09-24T09:48:44.719Z,99.99
2017-09-24T09:49:44.699Z,99.99
2017-09-24T09:50:44.691Z,99.99
2017-09-24T09:51:44.679Z,99.99
2017-09-24T09:52:44.672Z,99.99
2017-09-24T09:53:44.651Z,99.99
2017-09-24T09:54:44.649Z,99.99
2017-09-24T09:55:44.630Z,98.92
2017-09-24T09:56:44.310Z,98.3
2017-09-24T09:57:44.601Z,97.42
2017-09-24T09:58:44.282Z,95.35
2017-09-24T09:59:44.598Z,95.3
2017-09-24T10:00:44.572Z,93.41
2017-09-24T10:01:44.249Z,92.93
2017-09-24T10:02:44.551Z,91.14
2017-09-24T10:03:44.231Z,89.69
2017-09-24T10:04:44.541Z,90.84
2017-09-24T10:05:44.211Z,91.33
2017-09-24T10:06:44.547Z,90.94
2017-09-24T10:07:44.519Z,92.2
2017-09-24T10:08:44.513Z,91.33
2017-09-24T10:09:44.482Z,89.34
2017-09-24T10:10:44.478Z,89.97
2017-09-24T10:11:44.469Z,89.88
2017-09-24T10:12:44.461Z,89.78
2017-09-24T10:13:44.139Z,88.85
2017-09-24T10:14:44.458Z,88.03
2017-09-24T10:15:44.446Z,87.16
2017-09-24T10:16:44.440Z,86.48
2017-09-24T10:17:44.433Z,87.74
2017-09-24T10:18:44.432Z,86.87
2017-09-24T10:19:44.091Z,85.94
2017-09-24T10:20:44.459Z,87.84
2017-09-24T10:21:44.395Z,87.01
2017-09-24T10:22:44.389Z,85.89
2017-09-24T10:23:44.377Z,85.11
2017-09-24T10:24:44.362Z,83.99
2017-09-24T10:25:44.349Z,84.09
2017-09-24T10:26:44.341Z,84.28
2017-09-24T10:27:44.029Z,82.53
2017-09-24T10:28:44.356Z,82.48
2017-09-24T10:29:44.325Z,82.97
2017-09-24T10:30:44.329Z,82.48
2017-09-24T10:31:44.307Z,82.53
2017-09-24T10:32:44.320Z,83.47
2017-09-24T10:33:43.989Z,83.27
2017-09-24T10:34:44.282Z,83.72
2017-09-24T10:35:44.273Z,83.58
2017-09-24T10:36:44.270Z,84.25
2017-09-24T10:37:44.250Z,85.61
2017-09-24T10:38:44.257Z,84.68
2017-09-24T10:39:44.260Z,83.91
2017-09-24T10:40:44.230Z,82.98
2017-09-24T10:41:43.908Z,83.17
2017-09-24T10:42:44.220Z,82.69
2017-09-24T10:43:44.211Z,82.92
2017-09-24T10:44:44.194Z,82.05
2017-09-24T10:45:44.181Z,80.73
2017-09-24T10:46:44.180Z,80.73
2017-09-24T10:47:44.168Z,81.12
2017-09-24T10:48:44.160Z,79.02
2017-09-24T10:49:43.839Z,79.76
2017-09-24T10:50:44.141Z,81.21
2017-09-24T10:51:44.131Z,81.06
2017-09-24T10:52:44.121Z,79.9
2017-09-24T10:53:44.120Z,78.83
2017-09-24T10:54:43.813Z,78.92
2017-09-24T10:55:44.122Z,79.12
2017-09-24T10:56:44.092Z,79.41
2017-09-24T10:57:43.772Z,78.92
2017-09-24T10:58:44.082Z,78.64
2017-09-24T10:59:44.085Z,78.73
2017-09-24T11:00:44.071Z,79.12
2017-09-24T11:01:44.062Z,77.76
2017-09-24T11:02:44.053Z,78.28
2017-09-24T11:03:44.034Z,78.15
2017-09-24T11:04:44.031Z,78.19
2017-09-24T11:05:44.026Z,77.02
2017-09-24T11:06:43.701Z,77.7
2017-09-24T11:07:43.996Z,78.09
2017-09-24T11:08:44.000Z,77.51
2017-09-24T11:09:43.668Z,77.37
2017-09-24T11:10:43.990Z,77.72
2017-09-24T11:11:43.654Z,78.27
2017-09-24T11:12:43.961Z,78.85
2017-09-24T11:13:43.960Z,78.91
2017-09-24T11:14:43.929Z,79.88
2017-09-24T11:15:43.959Z,81.33
2017-09-24T11:16:43.929Z,82.01
2017-09-24T11:17:43.919Z,80.88
2017-09-24T11:18:43.892Z,79.14
2017-09-24T11:19:43.586Z,79.78
2017-09-24T11:20:43.879Z,80.17
2017-09-24T11:21:43.557Z,78.87
2017-09-24T11:22:43.549Z,78.97
2017-09-24T11:23:43.847Z,79.16
2017-09-24T11:24:43.846Z,79.84
2017-09-24T11:25:43.839Z,80.77
2017-09-24T11:26:43.831Z,81.12
2017-09-24T11:27:43.827Z,79.12
2017-09-24T11:28:43.810Z,79.8
2017-09-24T11:29:43.791Z,80.03
2017-09-24T11:30:43.789Z,78.71
2017-09-24T11:31:43.773Z,76.87
2017-09-24T11:32:43.785Z,77.75
2017-09-24T11:33:43.757Z,76.72
2017-09-24T11:34:43.750Z,74.77
2017-09-24T11:35:43.426Z,76.62
2017-09-24T11:36:43.732Z,78.27
2017-09-24T11:37:43.720Z,79.08
2017-09-24T11:38:43.698Z,79.08
2017-09-24T11:39:43.707Z,77.04
2017-09-24T11:40:43.692Z,76.89
2017-09-24T11:41:43.716Z,77.28
2017-09-24T11:42:43.668Z,76.5
2017-09-24T11:43:43.661Z,77.67
2017-09-24T11:44:43.649Z,74.95
2017-09-24T11:45:43.341Z,75.24
2017-09-24T11:46:43.627Z,76.31
2017-09-24T11:47:43.439Z,73.14
2017-09-24T11:48:43.618Z,73.14
2017-09-24T11:49:43.653Z,73.33
2017-09-24T11:50:43.631Z,74.4
2017-09-24T11:51:43.593Z,73.82
2017-09-24T11:52:43.599Z,72.55
2017-09-24T11:53:43.358Z,72.39
2017-09-24T11:54:43.557Z,72.36
2017-09-24T11:55:43.243Z,70.65
2017-09-24T11:56:43.227Z,71.42
2017-09-24T11:57:43.543Z,68.9
2017-09-24T11:58:43.514Z,69.09
2017-09-24T11:59:43.519Z,68.51
2017-09-24T12:00:43.507Z,69.58
2017-09-24T12:01:43.197Z,67.73
2017-09-24T12:02:43.479Z,67.83
2017-09-24T12:03:43.178Z,67.93
2017-09-24T12:04:43.161Z,68.41
2017-09-24T12:05:43.469Z,68.25
2017-09-24T12:06:43.151Z,67.76
2017-09-24T12:07:43.130Z,66.99
2017-09-24T12:08:43.476Z,66.79
2017-09-24T12:09:43.431Z,66.79
2017-09-24T12:10:43.419Z,66.11
2017-09-24T12:11:43.398Z,66.31
2017-09-24T12:12:43.398Z,65.82
2017-09-24T12:13:43.389Z,66.31
2017-09-24T12:14:43.398Z,66.99
2017-09-24T12:15:43.368Z,67.67
2017-09-24T12:16:43.363Z,65.82
2017-09-24T12:17:43.353Z,66.31
2017-09-24T12:18:43.352Z,66.11
2017-09-24T12:19:43.359Z,66.76
2017-09-24T12:20:43.022Z,68.51
2017-09-24T12:21:43.020Z,68.7
2017-09-24T12:22:43.320Z,68.12
2017-09-24T12:23:43.309Z,70
2017-09-24T12:24:43.314Z,67.76
2017-09-24T12:25:43.283Z,67.76
2017-09-24T12:26:43.074Z,67.86
2017-09-24T12:27:43.272Z,67.57
2017-09-24T12:28:42.983Z,66.79
2017-09-24T12:29:43.260Z,67.76
2017-09-24T12:30:43.253Z,67.57
2017-09-24T12:31:43.232Z,67.08
2017-09-24T12:32:43.226Z,67.67
2017-09-24T12:33:43.345Z,67.57
2017-09-24T12:34:43.215Z,67.57
2017-09-24T12:35:42.880Z,67.28
2017-09-24T12:36:43.199Z,66.89
2017-09-24T12:37:43.276Z,66.69
2017-09-24T12:38:43.182Z,64.85
2017-09-24T12:39:43.180Z,65.92
2017-09-24T12:40:43.170Z,66.73
2017-09-24T12:41:43.251Z,64.69
2017-09-24T12:42:43.161Z,65.33
2017-09-24T12:43:42.824Z,65.3
2017-09-24T12:44:43.162Z,66.27
2017-09-24T12:45:42.805Z,65.89
2017-09-24T12:46:43.133Z,66.76
2017-09-24T12:47:43.104Z,67.24
2017-09-24T12:48:43.107Z,66.86
2017-09-24T12:49:43.093Z,66.69
2017-09-24T12:50:43.076Z,65.69
2017-09-24T12:51:43.062Z,64.81
2017-09-24T12:52:43.053Z,64.72
2017-09-24T12:53:42.806Z,65.47